Letterkenny, Ireland
Current Conditions -  °F | °C
As of 2:20 PM on Sunday 25 Jan 2015 (Local Time) from EGAE Reporting Station
Broken Clouds Broken Clouds  
Wind Chill: 12°   Ceiling: 1500
Heat Index: 12°   Visibility: 6mi
Dew Point:   Wind: 17mph
Humidity: 82%   Direction: 220°SW
Pressure: 30.03"   Gusts: NA
Location:  54.94°N, 7.74°W
Report Text: EGAE 251420Z 22015KT 9999 SCT012 BKN015 12/09 Q1017
Loading
Personal Weather Stations






























Interactive Weather Map New forecast layout! Learn more

10-Day Weather Forecast

Advertisements
Track Severe Weather on mobile